Terminal Aerodrome Forecast
Issued by NWS Austin/San Antonio, TX

Home | Current Version | Previous Version | Text Only | Print | Product List | Glossary On
Versions: 1 2 3 4 5 6 7 8 9 10 11 12 13 14 15 16 17 18 19 20 21 22
029
FTUS44 KEWX 211549 AAC
TAFDRT
TAF AMD
KDRT 211549Z 2116/2212 VRB04KT 1/4SM FG BKN002
     FM211630 32006KT P6SM SCT005 SCT250
     FM211700 24012G22KT P6SM SCT250
     FM211900 29023G33KT P6SM SCT150
     FM220100 32014KT P6SM SCT150
     FM220800 32022G32KT P6SM FEW150=

USA.gov is the U.S. government's official web portal to all federal, state and local government web resources and services.